createdAt,value
2022-10-20T00:01:25.872Z,100911.22
2022-10-20T00:03:55.691Z,100910.16
2022-10-20T00:06:26.138Z,100905.78
2022-10-20T00:08:55.893Z,100903.63
2022-10-20T00:11:26.261Z,100906.59
2022-10-20T00:13:56.753Z,100900.47
2022-10-20T00:16:28.641Z,100899.53
2022-10-20T00:18:57.783Z,100896.66
2022-10-20T00:21:27.607Z,100898.47
2022-10-20T00:23:56.170Z,100888.78
2022-10-20T00:26:29.031Z,100888.78
2022-10-20T00:28:58.102Z,100876.88
2022-10-20T00:31:28.261Z,100882.94
2022-10-20T00:33:56.462Z,100879.25
2022-10-20T00:36:26.714Z,100884.34
2022-10-20T00:38:59.234Z,100885.91
2022-10-20T00:41:30.125Z,100872.84
2022-10-20T00:44:01.049Z,100870.09
2022-10-20T00:46:35.398Z,100860.94
2022-10-20T00:49:09.080Z,100852.66
2022-10-20T00:51:38.294Z,100857.63
2022-10-20T00:54:10.855Z,100852.41
2022-10-20T00:56:44.852Z,100849.22
2022-10-20T00:59:15.790Z,100846.88
2022-10-20T01:01:44.941Z,100857.00
2022-10-20T01:04:13.892Z,100841.03
2022-10-20T01:06:42.582Z,100840.09
2022-10-20T01:09:12.423Z,100838.81
2022-10-20T01:11:49.774Z,100832.78
2022-10-20T01:14:31.789Z,100830.84
2022-10-20T01:17:07.411Z,100826.72
2022-10-20T01:20:08.907Z,100820.97
2022-10-20T01:23:08.675Z,100826.94
2022-10-20T01:25:52.712Z,100823.22
2022-10-20T01:28:28.507Z,100823.31
2022-10-20T01:31:00.651Z,100821.06
2022-10-20T01:33:36.726Z,100833.63
2022-10-20T01:36:13.472Z,100835.84
2022-10-20T01:38:45.879Z,100848.81
2022-10-20T01:41:19.793Z,100844.47
2022-10-20T01:43:50.959Z,100845.41
2022-10-20T01:46:22.997Z,100838.50
2022-10-20T01:48:51.960Z,100833.31
2022-10-20T01:51:20.460Z,100822.47
2022-10-20T01:53:48.927Z,100818.88
2022-10-20T01:56:22.603Z,100812.38
2022-10-20T01:59:20.871Z,100809.72
2022-10-20T02:02:20.137Z,100798.03
2022-10-20T02:05:12.197Z,100795.78
2022-10-20T02:07:42.976Z,100793.78
2022-10-20T02:10:16.039Z,100797.91
2022-10-20T02:12:50.329Z,100793.56
2022-10-20T02:15:24.642Z,100785.06
2022-10-20T02:17:59.940Z,100773.16
2022-10-20T02:20:29.100Z,100773.34
2022-10-20T02:22:59.103Z,100765.41
2022-10-20T02:25:29.282Z,100770.50
2022-10-20T02:30:30.717Z,100754.66
2022-10-20T02:33:04.151Z,100761.03
2022-10-20T02:35:34.105Z,100752.84
2022-10-20T02:38:02.988Z,100762.22
2022-10-20T02:40:32.515Z,100755.09
2022-10-20T02:43:00.746Z,100755.69
2022-10-20T02:45:30.627Z,100752.50
2022-10-20T02:47:58.934Z,100755.09
2022-10-20T02:50:27.205Z,100761.88
2022-10-20T02:52:55.804Z,100759.09
2022-10-20T02:55:24.168Z,100762.94
2022-10-20T02:57:53.862Z,100762.09
2022-10-20T03:00:23.405Z,100762.94
2022-10-20T03:02:53.855Z,100773.25
2022-10-20T03:05:22.555Z,100766.78
2022-10-20T03:07:50.867Z,100756.25
2022-10-20T03:10:19.174Z,100751.06
2022-10-20T03:12:48.116Z,100767.81
2022-10-20T03:15:17.062Z,100774.63
2022-10-20T03:17:45.303Z,100767.09
2022-10-20T03:20:15.670Z,100762.13
2022-10-20T03:22:43.993Z,100768.69
2022-10-20T03:25:12.267Z,100759.44
2022-10-20T03:27:40.896Z,100764.22
2022-10-20T03:30:09.999Z,100764.00
2022-10-20T03:32:38.684Z,100754.25
2022-10-20T03:35:10.081Z,100764.78
2022-10-20T03:37:39.570Z,100761.25
2022-10-20T03:40:09.005Z,100754.88
2022-10-20T03:42:37.481Z,100745.31
2022-10-20T03:45:08.534Z,100740.13
2022-10-20T03:47:37.433Z,100737.56
2022-10-20T03:50:06.359Z,100723.22
2022-10-20T03:52:35.418Z,100716.94
2022-10-20T03:55:06.377Z,100716.94
2022-10-20T03:57:35.041Z,100717.69
2022-10-20T04:00:03.658Z,100719.38
2022-10-20T04:02:42.978Z,100700.34
2022-10-20T04:05:15.007Z,100689.88
2022-10-20T04:07:43.706Z,100684.91
2022-10-20T04:10:14.247Z,100679.91
2022-10-20T04:12:42.707Z,100678.44
2022-10-20T04:15:11.788Z,100664.28
2022-10-20T04:20:09.784Z,100675.88
2022-10-20T04:22:39.146Z,100675.75
2022-10-20T04:25:08.274Z,100681.69
2022-10-20T04:27:38.216Z,100688.91
2022-10-20T04:30:08.873Z,100695.91
2022-10-20T04:32:37.593Z,100704.56
2022-10-20T04:35:07.427Z,100705.06
2022-10-20T04:37:36.424Z,100708.78
2022-10-20T04:40:05.459Z,100702.97
2022-10-20T04:42:33.772Z,100685.00
2022-10-20T04:45:03.639Z,100690.09
2022-10-20T04:47:33.463Z,100674.47
2022-10-20T04:50:02.092Z,100665.44
2022-10-20T04:52:30.413Z,100666.50
2022-10-20T04:54:58.579Z,100662.13
2022-10-20T04:57:27.016Z,100650.94
2022-10-20T04:59:55.257Z,100652.97
2022-10-20T05:02:25.160Z,100647.25
2022-10-20T05:04:53.715Z,100655.53
2022-10-20T05:07:22.010Z,100656.25
2022-10-20T05:09:50.454Z,100661.47
2022-10-20T05:12:18.907Z,100648.38
2022-10-20T05:14:47.329Z,100651.88
2022-10-20T05:17:15.700Z,100646.91
2022-10-20T05:19:45.659Z,100637.34
2022-10-20T05:22:14.156Z,100629.97
2022-10-20T05:24:42.945Z,100631.66
2022-10-20T05:27:11.143Z,100629.09
2022-10-20T05:29:39.427Z,100621.91
2022-10-20T05:32:07.878Z,100606.25
2022-10-20T05:34:36.435Z,100600.94
2022-10-20T05:37:06.338Z,100599.28
2022-10-20T05:39:34.347Z,100592.28
2022-10-20T05:42:02.728Z,100590.06
2022-10-20T05:44:31.045Z,100601.56
2022-10-20T05:46:59.600Z,100613.97
2022-10-20T05:49:28.058Z,100608.28
2022-10-20T05:51:56.421Z,100620.22
2022-10-20T05:54:26.543Z,100609.31
2022-10-20T05:56:55.241Z,100609.09
2022-10-20T05:59:24.138Z,100601.88
2022-10-20T06:01:52.907Z,100596.34
2022-10-20T06:04:24.033Z,100596.34
2022-10-20T06:06:53.374Z,100600.38
2022-10-20T06:09:23.113Z,100602.28
2022-10-20T06:11:53.503Z,100607.09
2022-10-20T06:14:22.919Z,100607.09
2022-10-20T06:16:54.102Z,100608.03
2022-10-20T06:19:24.952Z,100605.31
2022-10-20T06:21:55.126Z,100610.16
2022-10-20T06:24:24.217Z,100614.28
2022-10-20T06:26:54.215Z,100617.63
2022-10-20T06:29:22.367Z,100621.16
2022-10-20T06:31:52.557Z,100627.88
2022-10-20T06:34:23.234Z,100629.94
2022-10-20T06:36:52.492Z,100648.09
2022-10-20T06:39:23.856Z,100658.13
2022-10-20T06:41:55.818Z,100663.38
2022-10-20T06:44:26.044Z,100675.84
2022-10-20T06:46:54.815Z,100681.41
2022-10-20T06:49:24.644Z,100671.53
2022-10-20T06:51:52.766Z,100667.38
2022-10-20T06:54:22.647Z,100668.38
2022-10-20T06:56:51.089Z,100679.91
2022-10-20T06:59:21.540Z,100691.41
2022-10-20T07:01:50.088Z,100704.19
2022-10-20T07:04:20.200Z,100697.34
2022-10-20T07:06:49.208Z,100704.94
2022-10-20T07:09:19.698Z,100705.44
2022-10-20T07:11:52.839Z,100690.47
2022-10-20T07:14:26.301Z,100674.72
2022-10-20T07:16:55.859Z,100681.56
2022-10-20T07:19:24.585Z,100682.06
2022-10-20T07:21:54.822Z,100668.53
2022-10-20T07:24:26.456Z,100662.19
2022-10-20T07:26:55.253Z,100655.09
2022-10-20T07:29:24.943Z,100656.03
2022-10-20T07:31:53.249Z,100647.41
2022-10-20T07:34:26.153Z,100658.06
2022-10-20T07:36:55.538Z,100646.03
2022-10-20T07:39:24.310Z,100657.25
2022-10-20T07:41:52.547Z,100667.25
2022-10-20T07:44:20.834Z,100657.06
2022-10-20T07:46:50.433Z,100664.72
2022-10-20T07:52:07.775Z,100687.59
2022-10-20T07:54:36.725Z,100678.22
2022-10-20T07:57:05.072Z,100668.47
2022-10-20T07:59:33.341Z,100676.06
2022-10-20T08:02:03.948Z,100674.53
2022-10-20T08:04:32.316Z,100658.72
2022-10-20T08:07:01.365Z,100650.03
2022-10-20T08:09:29.723Z,100654.88
2022-10-20T08:11:58.523Z,100662.63
2022-10-20T08:14:32.181Z,100642.88
2022-10-20T08:17:05.603Z,100645.53
2022-10-20T08:19:59.112Z,100637.31
2022-10-20T08:22:27.350Z,100652.38
2022-10-20T08:24:55.625Z,100662.41
2022-10-20T08:27:23.926Z,100658.28
2022-10-20T08:30:00.245Z,100641.06
2022-10-20T08:32:40.969Z,100636.69
2022-10-20T08:35:11.637Z,100657.72
2022-10-20T08:37:39.837Z,100654.47
2022-10-20T08:40:16.161Z,100649.81
2022-10-20T08:42:46.260Z,100646.41
2022-10-20T08:45:17.636Z,100633.84
2022-10-20T08:47:47.140Z,100625.16
2022-10-20T08:50:19.178Z,100627.66
2022-10-20T08:52:52.436Z,100630.34
2022-10-20T08:55:27.987Z,100623.53
2022-10-20T08:58:01.323Z,100624.31
2022-10-20T09:00:31.696Z,100627.84
2022-10-20T09:03:07.973Z,100625.81
2022-10-20T09:05:39.353Z,100622.28
2022-10-20T09:08:09.631Z,100626.69
2022-10-20T09:10:39.842Z,100633.16
2022-10-20T09:13:16.359Z,100632.44
2022-10-20T09:15:45.319Z,100633.91
2022-10-20T09:18:16.457Z,100628.03
2022-10-20T09:20:52.584Z,100632.28
2022-10-20T09:23:41.842Z,100638.91
2022-10-20T09:26:30.593Z,100633.00
2022-10-20T09:29:14.433Z,100647.88
2022-10-20T09:31:45.757Z,100657.03
2022-10-20T09:34:26.218Z,100652.56
2022-10-20T09:37:05.441Z,100654.81
2022-10-20T09:39:42.248Z,100658.63
2022-10-20T09:42:15.998Z,100658.16
2022-10-20T09:44:50.397Z,100669.94
2022-10-20T09:47:20.329Z,100660.59
2022-10-20T09:50:00.020Z,100651.75
2022-10-20T09:52:34.971Z,100648.03
2022-10-20T09:55:10.699Z,100651.47
2022-10-20T09:57:39.026Z,100653.25
2022-10-20T10:00:25.143Z,100650.75
2022-10-20T10:03:10.039Z,100642.09
2022-10-20T10:05:38.663Z,100640.94
2022-10-20T10:08:15.350Z,100648.38
2022-10-20T10:10:46.350Z,100651.03
2022-10-20T10:13:51.813Z,100649.13
2022-10-20T10:16:41.736Z,100645.78
2022-10-20T10:19:19.375Z,100641.53
2022-10-20T10:21:53.148Z,100637.66
2022-10-20T10:24:46.618Z,100634.03
2022-10-20T10:27:35.723Z,100617.50
2022-10-20T10:30:28.714Z,100613.72
2022-10-20T10:32:57.799Z,100598.72
2022-10-20T10:35:30.237Z,100591.03
2022-10-20T10:37:59.808Z,100578.94
2022-10-20T10:40:33.430Z,100595.47
2022-10-20T10:43:29.743Z,100588.94
2022-10-20T10:46:01.696Z,100593.91
2022-10-20T10:48:53.147Z,100583.34
2022-10-20T10:51:39.660Z,100575.28
2022-10-20T10:54:21.519Z,100583.53
2022-10-20T10:56:55.472Z,100564.91
2022-10-20T10:59:29.395Z,100553.38
2022-10-20T11:02:30.535Z,100553.44
2022-10-20T11:05:23.966Z,100555.22
2022-10-20T11:08:02.443Z,100553.81
2022-10-20T11:10:40.626Z,100553.50
2022-10-20T11:13:30.236Z,100555.00
2022-10-20T11:16:08.703Z,100554.47
2022-10-20T11:18:53.765Z,100560.63
2022-10-20T11:21:29.842Z,100575.09
2022-10-20T11:24:12.403Z,100574.00
2022-10-20T11:26:42.751Z,100574.84
2022-10-20T11:29:29.459Z,100569.66
2022-10-20T11:32:03.851Z,100565.19
2022-10-20T11:34:39.046Z,100566.63
2022-10-20T11:37:19.277Z,100565.88
2022-10-20T11:39:53.400Z,100563.06
2022-10-20T11:42:29.728Z,100566.41
2022-10-20T11:45:03.588Z,100553.47
2022-10-20T11:47:39.896Z,100547.84
2022-10-20T11:50:12.312Z,100547.06
2022-10-20T11:53:11.025Z,100544.00
2022-10-20T11:56:18.502Z,100541.66
2022-10-20T11:59:26.521Z,100549.03
2022-10-20T12:02:37.049Z,100562.81
2022-10-20T12:05:23.259Z,100564.25
2022-10-20T12:08:30.583Z,100563.72
2022-10-20T12:11:07.919Z,100566.44
2022-10-20T12:13:48.787Z,100576.06
2022-10-20T12:16:50.482Z,100581.84
2022-10-20T12:19:22.453Z,100571.44
2022-10-20T12:21:59.181Z,100581.66
2022-10-20T12:24:34.627Z,100567.75
2022-10-20T12:27:20.083Z,100565.38
2022-10-20T12:29:54.474Z,100567.25
2022-10-20T12:32:54.490Z,100564.16
2022-10-20T12:36:02.332Z,100554.88
2022-10-20T12:38:32.765Z,100543.53
2022-10-20T12:41:03.911Z,100527.84
2022-10-20T12:43:36.903Z,100523.88
2022-10-20T12:46:10.729Z,100515.41
2022-10-20T12:48:46.203Z,100508.91
2022-10-20T12:51:33.181Z,100492.97
2022-10-20T12:54:08.323Z,100511.91
2022-10-20T12:56:40.555Z,100531.19
2022-10-20T12:59:31.866Z,100533.88
2022-10-20T13:02:39.744Z,100529.88
2022-10-20T13:05:49.544Z,100537.97
2022-10-20T13:08:27.918Z,100531.38
2022-10-20T13:11:18.593Z,100533.44
2022-10-20T13:14:01.490Z,100518.28
2022-10-20T13:16:33.820Z,100517.38
2022-10-20T13:19:03.055Z,100520.03
2022-10-20T13:21:34.634Z,100521.47
2022-10-20T13:24:06.464Z,100517.56
2022-10-20T13:26:46.167Z,100506.63
2022-10-20T13:29:18.377Z,100503.97
2022-10-20T13:32:03.724Z,100498.69
2022-10-20T13:34:40.685Z,100500.22
2022-10-20T13:37:22.895Z,100487.22
2022-10-20T13:40:04.856Z,100476.66
2022-10-20T13:42:57.536Z,100483.78
2022-10-20T13:45:37.568Z,100485.41
2022-10-20T13:48:20.768Z,100484.22
2022-10-20T13:50:57.546Z,100463.47
2022-10-20T13:53:29.840Z,100457.16
2022-10-20T13:56:04.390Z,100465.41
2022-10-20T13:58:36.538Z,100481.09
2022-10-20T14:01:09.247Z,100481.00
2022-10-20T14:03:45.978Z,100478.44
2022-10-20T14:06:34.630Z,100491.41
2022-10-20T14:09:18.080Z,100501.00
2022-10-20T14:11:48.912Z,100486.88
2022-10-20T14:14:22.636Z,100503.09
2022-10-20T14:16:55.549Z,100505.44
2022-10-20T14:19:28.372Z,100494.00
2022-10-20T14:21:58.697Z,100489.84
2022-10-20T14:24:33.698Z,100490.59
2022-10-20T14:27:05.559Z,100488.09
2022-10-20T14:29:40.581Z,100484.91
2022-10-20T14:32:09.446Z,100494.34
2022-10-20T14:34:38.121Z,100492.13
2022-10-20T14:37:09.778Z,100483.28
2022-10-20T14:39:41.209Z,100476.81
2022-10-20T14:42:23.071Z,100482.41
2022-10-20T14:44:54.298Z,100473.88
2022-10-20T14:47:22.937Z,100471.53
2022-10-20T14:49:53.171Z,100493.75
2022-10-20T14:52:24.232Z,100491.72
2022-10-20T14:54:53.188Z,100476.09
2022-10-20T14:57:32.472Z,100475.38
2022-10-20T15:00:04.777Z,100473.91
2022-10-20T15:02:35.391Z,100466.69
2022-10-20T15:05:22.565Z,100478.47
2022-10-20T15:07:51.416Z,100474.50
2022-10-20T15:10:24.387Z,100465.69
2022-10-20T15:12:55.869Z,100456.72
2022-10-20T15:15:27.254Z,100454.38
2022-10-20T15:18:11.788Z,100451.91
2022-10-20T15:20:42.179Z,100433.50
2022-10-20T15:23:14.595Z,100436.75
2022-10-20T15:25:51.176Z,100424.56
2022-10-20T15:28:37.420Z,100418.94
2022-10-20T15:31:17.538Z,100431.00
2022-10-20T15:33:47.945Z,100419.81
2022-10-20T15:36:20.792Z,100422.34
2022-10-20T15:38:50.546Z,100423.94
2022-10-20T15:41:21.827Z,100421.31
2022-10-20T15:43:50.373Z,100419.38
2022-10-20T15:46:21.121Z,100425.25
2022-10-20T15:48:49.831Z,100429.81
2022-10-20T15:51:24.117Z,100422.00
2022-10-20T15:53:52.807Z,100428.31
2022-10-20T15:56:21.954Z,100419.53
2022-10-20T15:58:51.333Z,100419.94
2022-10-20T16:01:22.929Z,100420.25
2022-10-20T16:03:51.419Z,100422.31
2022-10-20T16:06:20.580Z,100425.50
2022-10-20T16:08:50.710Z,100422.00
2022-10-20T16:11:20.854Z,100419.19
2022-10-20T16:13:49.957Z,100412.88
2022-10-20T16:16:21.102Z,100401.72
2022-10-20T16:18:51.040Z,100401.56
2022-10-20T16:21:19.492Z,100412.56
2022-10-20T16:23:48.511Z,100416.53
2022-10-20T16:26:17.019Z,100415.66
2022-10-20T16:28:46.730Z,100411.97
2022-10-20T16:31:17.808Z,100406.25
2022-10-20T16:33:49.259Z,100406.09
2022-10-20T16:36:18.828Z,100404.63
2022-10-20T16:38:47.595Z,100401.69
2022-10-20T16:41:17.246Z,100393.16
2022-10-20T16:43:46.888Z,100402.72
2022-10-20T16:46:15.841Z,100403.28
2022-10-20T16:48:47.499Z,100395.94
2022-10-20T16:51:18.687Z,100402.69
2022-10-20T16:53:46.976Z,100419.84
2022-10-20T16:56:18.394Z,100421.47
2022-10-20T16:58:49.972Z,100426.72
2022-10-20T17:01:20.723Z,100434.34
2022-10-20T17:03:50.501Z,100436.97
2022-10-20T17:06:22.736Z,100430.53
2022-10-20T17:08:52.437Z,100431.53
2022-10-20T17:11:21.919Z,100429.19
2022-10-20T17:13:51.020Z,100429.03
2022-10-20T17:16:24.817Z,100428.84
2022-10-20T17:18:56.844Z,100424.63
2022-10-20T17:21:27.121Z,100426.63
2022-10-20T17:23:56.611Z,100410.53
2022-10-20T17:26:28.121Z,100404.47
2022-10-20T17:28:57.351Z,100400.22
2022-10-20T17:31:29.746Z,100395.38
2022-10-20T17:33:59.055Z,100410.75
2022-10-20T17:36:29.875Z,100418.72
2022-10-20T17:39:00.342Z,100411.09
2022-10-20T17:41:29.314Z,100415.34
2022-10-20T17:44:00.864Z,100411.41
2022-10-20T17:46:29.251Z,100408.03
2022-10-20T17:48:57.838Z,100403.03
2022-10-20T17:51:33.443Z,100386.16
2022-10-20T17:54:03.886Z,100381.16
2022-10-20T17:56:35.228Z,100372.22
2022-10-20T17:59:06.498Z,100369.91
2022-10-20T18:01:37.333Z,100383.09
2022-10-20T18:04:08.311Z,100389.56
2022-10-20T18:06:38.966Z,100390.28
2022-10-20T18:09:10.790Z,100387.66
2022-10-20T18:11:40.962Z,100382.81
2022-10-20T18:17:00.555Z,100362.00
2022-10-20T18:19:28.716Z,100350.84
2022-10-20T18:21:58.452Z,100347.34
2022-10-20T18:24:26.708Z,100347.47
2022-10-20T18:26:55.310Z,100352.91
2022-10-20T18:29:25.569Z,100363.47
2022-10-20T18:31:56.131Z,100361.56
2022-10-20T18:34:25.269Z,100369.34
2022-10-20T18:36:55.931Z,100366.72
2022-10-20T18:39:25.722Z,100360.00
2022-10-20T18:41:54.972Z,100357.06
2022-10-20T18:44:23.842Z,100355.75
2022-10-20T18:46:57.775Z,100362.66
2022-10-20T18:49:26.289Z,100362.19
2022-10-20T18:51:54.942Z,100346.06
2022-10-20T18:54:24.410Z,100342.81
2022-10-20T18:56:54.308Z,100332.69
2022-10-20T18:59:22.922Z,100342.38
2022-10-20T19:01:51.599Z,100348.13
2022-10-20T19:04:20.453Z,100338.72
2022-10-20T19:06:49.479Z,100323.72
2022-10-20T19:09:20.138Z,100319.34
2022-10-20T19:14:25.524Z,100323.88
2022-10-20T19:16:53.910Z,100315.81
2022-10-20T19:19:23.119Z,100326.97
2022-10-20T19:21:53.879Z,100321.97
2022-10-20T19:24:25.074Z,100326.66
2022-10-20T19:27:24.677Z,100328.56
2022-10-20T19:29:47.572Z,100321.50
2022-10-20T19:32:17.393Z,100319.19
2022-10-20T19:34:46.011Z,100322.72
2022-10-20T19:37:15.745Z,100325.78
2022-10-20T19:39:45.591Z,100313.31
2022-10-20T19:42:15.166Z,100309.03
2022-10-20T19:44:45.353Z,100324.03
2022-10-20T19:47:16.128Z,100317.66
2022-10-20T19:49:45.654Z,100323.03
2022-10-20T19:52:13.736Z,100325.34
2022-10-20T19:54:42.173Z,100317.56
2022-10-20T19:57:10.330Z,100322.50
2022-10-20T19:59:39.236Z,100337.44
2022-10-20T20:02:08.315Z,100343.78
2022-10-20T20:04:38.295Z,100334.66
2022-10-20T20:07:06.699Z,100327.91
2022-10-20T20:09:34.985Z,100344.28
2022-10-20T20:12:03.183Z,100359.78
2022-10-20T20:14:34.199Z,100371.50
2022-10-20T20:17:03.553Z,100362.56
2022-10-20T20:19:32.957Z,100348.66
2022-10-20T20:22:02.919Z,100340.28
2022-10-20T20:24:31.139Z,100337.66
2022-10-20T20:27:00.241Z,100342.84
2022-10-20T20:29:29.204Z,100338.84
2022-10-20T20:31:57.500Z,100338.84
2022-10-20T20:34:25.986Z,100331.63
2022-10-20T20:36:55.701Z,100324.41
2022-10-20T20:39:25.685Z,100314.03
2022-10-20T20:41:53.859Z,100314.03
2022-10-20T20:46:50.434Z,100332.63
2022-10-20T20:49:19.424Z,100321.50
2022-10-20T20:51:48.203Z,100315.94
2022-10-20T20:54:16.998Z,100297.19
2022-10-20T20:56:46.855Z,100297.91
2022-10-20T20:59:16.057Z,100295.84
2022-10-20T21:01:45.065Z,100287.50
2022-10-20T21:04:13.359Z,100289.88
2022-10-20T21:07:01.227Z,100297.63
2022-10-20T21:09:31.043Z,100304.56
2022-10-20T21:12:01.395Z,100290.50
2022-10-20T21:14:29.996Z,100291.81
2022-10-20T21:16:59.704Z,100281.25
2022-10-20T21:19:28.445Z,100283.31
2022-10-20T21:21:58.373Z,100279.03
2022-10-20T21:24:27.399Z,100287.53
2022-10-20T21:26:58.576Z,100284.91
2022-10-20T21:29:28.321Z,100272.31
2022-10-20T21:31:58.311Z,100269.38
2022-10-20T21:34:27.188Z,100254.88
2022-10-20T21:36:55.519Z,100240.22
2022-10-20T21:39:23.782Z,100223.66
2022-10-20T21:41:52.175Z,100221.03
2022-10-20T21:44:21.402Z,100246.97
2022-10-20T21:46:53.403Z,100262.69
2022-10-20T21:49:25.260Z,100277.50
2022-10-20T21:51:55.982Z,100292.63
2022-10-20T21:54:26.514Z,100299.78
2022-10-20T21:56:56.208Z,100308.97
2022-10-20T21:59:26.376Z,100306.47
2022-10-20T22:01:58.883Z,100305.97
2022-10-20T22:04:29.284Z,100303.47
2022-10-20T22:06:59.628Z,100295.22
2022-10-20T22:09:28.374Z,100273.38
2022-10-20T22:11:58.403Z,100264.34
2022-10-20T22:14:27.603Z,100248.28
2022-10-20T22:16:57.204Z,100250.34
2022-10-20T22:19:25.871Z,100244.47
2022-10-20T22:21:55.162Z,100245.78
2022-10-20T22:24:24.881Z,100239.34
2022-10-20T22:26:54.034Z,100235.84
2022-10-20T22:29:23.665Z,100232.03
2022-10-20T22:31:51.873Z,100235.72
2022-10-20T22:34:22.098Z,100230.16
2022-10-20T22:36:51.354Z,100228.69
2022-10-20T22:39:19.709Z,100231.59
2022-10-20T22:41:48.193Z,100238.22
2022-10-20T22:44:16.599Z,100253.66
2022-10-20T22:46:46.646Z,100254.09
2022-10-20T22:49:15.484Z,100244.59
2022-10-20T22:51:45.036Z,100245.75
2022-10-20T22:54:13.253Z,100244.84
2022-10-20T22:56:41.587Z,100269.19
2022-10-20T22:59:09.850Z,100281.81
2022-10-20T23:01:38.617Z,100293.69
2022-10-20T23:04:06.947Z,100302.03
2022-10-20T23:06:35.568Z,100315.03
2022-10-20T23:09:05.834Z,100297.09
2022-10-20T23:11:34.974Z,100303.25
2022-10-20T23:14:03.329Z,100307.53
2022-10-20T23:16:31.776Z,100314.72
2022-10-20T23:19:00.082Z,100351.06
2022-10-20T23:21:28.764Z,100345.06
2022-10-20T23:23:57.017Z,100322.38
2022-10-20T23:26:26.678Z,100332.19
2022-10-20T23:28:55.609Z,100346.28
2022-10-20T23:31:24.170Z,100363.72
2022-10-20T23:33:57.799Z,100373.69
2022-10-20T23:36:26.144Z,100373.13
2022-10-20T23:38:54.476Z,100364.78
2022-10-20T23:41:23.957Z,100353.63
2022-10-20T23:43:53.775Z,100323.16
2022-10-20T23:46:23.406Z,100326.81
2022-10-20T23:48:51.521Z,100331.50
2022-10-20T23:51:19.983Z,100313.47
2022-10-20T23:53:48.398Z,100298.53
2022-10-20T23:56:18.921Z,100291.97
2022-10-20T23:58:47.816Z,100294.34
